createdAt,value
2022-08-25T00:02:03.185Z,15.15
2022-08-25T00:07:07.751Z,14.00
2022-08-25T00:12:10.483Z,13.15
2022-08-25T00:17:15.588Z,13.80
2022-08-25T00:22:18.305Z,14.90
2022-08-25T00:27:21.011Z,14.15
2022-08-25T00:32:25.560Z,14.13
2022-08-25T00:37:28.603Z,15.27
2022-08-25T00:42:31.517Z,13.43
2022-08-25T00:47:35.830Z,14.55
2022-08-25T00:52:42.703Z,15.13
2022-08-25T00:57:50.989Z,14.73
2022-08-25T01:02:56.681Z,15.20
2022-08-25T01:08:02.998Z,14.68
2022-08-25T01:13:16.722Z,16.00
2022-08-25T01:18:21.849Z,15.52
2022-08-25T01:23:27.071Z,15.80
2022-08-25T01:28:30.105Z,15.98
2022-08-25T01:33:32.801Z,16.85
2022-08-25T01:38:37.376Z,16.75
2022-08-25T01:43:40.419Z,15.23
2022-08-25T01:48:43.094Z,16.00
2022-08-25T01:53:47.097Z,15.27
2022-08-25T01:58:50.236Z,15.95
2022-08-25T02:03:55.364Z,15.82
2022-08-25T02:09:01.944Z,14.77
2022-08-25T02:14:05.711Z,15.65
2022-08-25T02:19:11.851Z,14.48
2022-08-25T02:24:16.508Z,15.43
2022-08-25T02:29:19.352Z,15.43
2022-08-25T02:34:23.344Z,15.52
2022-08-25T02:39:27.580Z,14.18
2022-08-25T02:44:31.725Z,14.10
2022-08-25T02:49:35.219Z,14.70
2022-08-25T02:54:39.287Z,14.57
2022-08-25T02:59:42.073Z,14.70
2022-08-25T03:04:45.239Z,16.50
2022-08-25T03:09:49.628Z,14.65
2022-08-25T03:14:52.285Z,16.08
2022-08-25T03:19:55.200Z,16.08
2022-08-25T03:25:24.048Z,17.25
2022-08-25T03:30:27.878Z,16.73
2022-08-25T03:35:30.999Z,15.50
2022-08-25T03:40:35.095Z,16.80
2022-08-25T03:45:41.507Z,15.60
2022-08-25T03:50:51.520Z,15.73
2022-08-25T03:55:57.527Z,16.23
2022-08-25T04:01:00.804Z,16.40
2022-08-25T04:06:04.518Z,15.32
2022-08-25T04:11:10.230Z,15.88
2022-08-25T04:16:14.303Z,14.75
2022-08-25T04:21:18.504Z,15.13
2022-08-25T04:26:24.839Z,15.32
2022-08-25T04:31:28.878Z,14.98
2022-08-25T04:36:32.151Z,14.15
2022-08-25T04:41:36.295Z,14.23
2022-08-25T04:46:38.999Z,15.05
2022-08-25T04:51:43.285Z,14.68
2022-08-25T04:56:47.275Z,14.20
2022-08-25T05:01:52.265Z,13.73
2022-08-25T05:06:55.092Z,12.73
2022-08-25T05:11:59.115Z,12.25
2022-08-25T05:17:02.427Z,12.60
2022-08-25T05:22:05.179Z,13.98
2022-08-25T05:27:09.200Z,13.35
2022-08-25T05:32:11.988Z,13.68
2022-08-25T05:37:14.761Z,12.75
2022-08-25T05:42:19.269Z,12.60
2022-08-25T05:47:22.292Z,11.98
2022-08-25T05:52:27.415Z,12.30
2022-08-25T05:57:31.404Z,12.02
2022-08-25T06:02:44.152Z,12.80
2022-08-25T06:07:47.374Z,14.00
2022-08-25T06:12:51.489Z,12.98
2022-08-25T06:18:00.960Z,12.77
2022-08-25T06:23:04.694Z,13.18
2022-08-25T06:28:08.667Z,13.57
2022-08-25T06:33:11.511Z,12.82
2022-08-25T06:38:14.808Z,12.00
2022-08-25T06:43:19.108Z,12.93
2022-08-25T06:48:23.821Z,14.18
2022-08-25T06:53:26.588Z,12.55
2022-08-25T06:58:31.198Z,12.98
2022-08-25T07:03:33.890Z,13.23
2022-08-25T07:08:37.147Z,13.82
2022-08-25T07:13:41.166Z,12.52
2022-08-25T07:18:44.846Z,14.07
2022-08-25T07:23:47.601Z,12.93
2022-08-25T07:28:52.171Z,11.55
2022-08-25T07:34:21.131Z,12.43
2022-08-25T07:39:25.429Z,12.93
2022-08-25T07:44:29.499Z,12.15
2022-08-25T07:49:35.897Z,11.82
2022-08-25T07:54:39.317Z,12.45
2022-08-25T07:59:43.972Z,13.35
2022-08-25T08:04:48.570Z,12.35
2022-08-25T08:10:00.386Z,12.40
2022-08-25T08:15:16.659Z,12.98
2022-08-25T08:20:23.237Z,10.60
2022-08-25T08:25:27.744Z,11.02
2022-08-25T08:30:32.117Z,11.95
2022-08-25T08:35:34.793Z,10.32
2022-08-25T08:41:15.178Z,10.48
2022-08-25T08:46:21.886Z,11.73
2022-08-25T08:51:32.809Z,11.35
2022-08-25T08:56:45.169Z,12.05
2022-08-25T09:01:59.033Z,10.63
2022-08-25T09:07:07.778Z,10.05
2022-08-25T09:12:21.315Z,10.02
2022-08-25T09:17:40.790Z,9.95
2022-08-25T09:22:53.823Z,8.15
2022-08-25T09:28:06.318Z,7.43
2022-08-25T09:33:13.073Z,7.13
2022-08-25T09:38:24.894Z,7.13
2022-08-25T09:43:33.484Z,7.22
2022-08-25T09:48:46.396Z,6.38
2022-08-25T09:53:55.144Z,6.75
2022-08-25T09:59:18.289Z,6.60
2022-08-25T10:04:29.123Z,5.00
2022-08-25T10:09:34.942Z,5.53
2022-08-25T10:14:44.433Z,5.97
2022-08-25T10:19:48.987Z,5.72
2022-08-25T10:24:52.340Z,5.18
2022-08-25T10:30:07.282Z,5.68
2022-08-25T10:35:16.697Z,6.07
2022-08-25T10:40:24.541Z,5.88
2022-08-25T10:45:44.976Z,5.78
2022-08-25T10:50:55.582Z,5.68
2022-08-25T10:56:09.300Z,5.53
2022-08-25T11:01:19.460Z,5.88
2022-08-25T11:06:39.945Z,6.07
2022-08-25T11:11:56.948Z,5.72
2022-08-25T11:17:05.814Z,5.55
2022-08-25T11:22:21.884Z,5.63
2022-08-25T11:27:31.435Z,5.13
2022-08-25T11:32:35.604Z,5.70
2022-08-25T11:37:46.897Z,5.20
2022-08-25T11:43:01.506Z,4.75
2022-08-25T11:48:18.920Z,4.90
2022-08-25T11:53:28.329Z,5.32
2022-08-25T11:58:38.673Z,5.53
2022-08-25T12:03:54.441Z,5.35
2022-08-25T12:09:24.888Z,4.88
2022-08-25T12:14:46.336Z,4.82
2022-08-25T12:20:00.618Z,4.47
2022-08-25T12:25:11.620Z,4.43
2022-08-25T12:30:20.937Z,4.90
2022-08-25T12:35:30.806Z,4.55
2022-08-25T12:40:38.931Z,4.50
2022-08-25T12:45:44.719Z,4.90
2022-08-25T12:50:57.683Z,4.85
2022-08-25T12:56:06.782Z,5.93
2022-08-25T13:01:35.122Z,5.00
2022-08-25T13:06:49.490Z,4.90
2022-08-25T13:12:00.639Z,4.80
2022-08-25T13:17:03.954Z,5.20
2022-08-25T13:22:16.385Z,4.95
2022-08-25T13:27:25.841Z,4.90
2022-08-25T13:32:32.281Z,5.15
2022-08-25T13:37:38.194Z,4.88
2022-08-25T13:42:45.117Z,5.50
2022-08-25T13:48:21.252Z,5.03
2022-08-25T13:53:24.211Z,5.45
2022-08-25T13:58:38.621Z,6.10
2022-08-25T14:03:48.906Z,5.38
2022-08-25T14:09:08.883Z,4.93
2022-08-25T14:14:15.148Z,5.20
2022-08-25T14:19:20.515Z,6.10
2022-08-25T14:24:24.659Z,5.72
2022-08-25T14:29:28.909Z,5.25
2022-08-25T14:34:37.238Z,6.07
2022-08-25T14:39:40.013Z,5.53
2022-08-25T14:44:48.097Z,5.35
2022-08-25T14:49:50.993Z,6.10
2022-08-25T14:54:54.299Z,6.05
2022-08-25T14:59:59.019Z,5.28
2022-08-25T15:05:06.383Z,5.07
2022-08-25T15:10:14.215Z,5.97
2022-08-25T15:15:18.934Z,6.32
2022-08-25T15:20:21.945Z,5.55
2022-08-25T15:25:24.646Z,5.68
2022-08-25T15:30:31.218Z,5.30
2022-08-25T15:35:35.306Z,5.43
2022-08-25T15:40:39.665Z,5.55
2022-08-25T15:45:46.283Z,6.35
2022-08-25T15:50:49.253Z,6.45
2022-08-25T15:55:52.326Z,5.90
2022-08-25T16:00:58.187Z,5.68
2022-08-25T16:06:04.922Z,6.00
2022-08-25T16:11:16.403Z,6.07
2022-08-25T16:16:23.219Z,6.38
2022-08-25T16:21:30.090Z,5.97
2022-08-25T16:26:33.208Z,6.68
2022-08-25T16:31:37.235Z,6.93
2022-08-25T16:36:40.677Z,6.57
2022-08-25T16:41:43.435Z,6.80
2022-08-25T16:46:47.879Z,7.20
2022-08-25T16:51:57.016Z,7.38
2022-08-25T16:57:00.747Z,7.13
2022-08-25T17:02:06.465Z,7.72
2022-08-25T17:07:09.346Z,8.38
2022-08-25T17:12:12.036Z,7.57
2022-08-25T17:17:16.248Z,8.20
2022-08-25T17:22:19.201Z,6.88
2022-08-25T17:27:23.471Z,7.65
2022-08-25T17:32:30.259Z,8.00
2022-08-25T17:37:33.823Z,8.38
2022-08-25T17:42:37.321Z,7.43
2022-08-25T17:47:41.301Z,8.68
2022-08-25T17:52:44.676Z,10.20
2022-08-25T17:57:47.343Z,7.72
2022-08-25T18:02:51.389Z,8.27
2022-08-25T18:07:54.237Z,9.32
2022-08-25T18:12:57.320Z,8.75
2022-08-25T18:18:01.733Z,9.40
2022-08-25T18:23:09.716Z,8.57
2022-08-25T18:28:12.645Z,9.52
2022-08-25T18:33:18.932Z,9.43
2022-08-25T18:38:40.246Z,8.93
2022-08-25T18:43:45.621Z,8.50
2022-08-25T18:48:49.655Z,9.45
2022-08-25T18:54:00.885Z,9.98
2022-08-25T18:59:04.863Z,9.85
2022-08-25T19:04:10.597Z,10.10
2022-08-25T19:09:13.331Z,10.00
2022-08-25T19:14:18.512Z,10.25
2022-08-25T19:19:23.121Z,10.18
2022-08-25T19:24:25.918Z,9.75
2022-08-25T19:29:30.388Z,10.07
2022-08-25T19:34:39.411Z,9.52
2022-08-25T19:39:53.273Z,11.00
2022-08-25T19:44:56.773Z,11.32
2022-08-25T19:50:00.904Z,10.82
2022-08-25T19:55:03.801Z,10.68
2022-08-25T20:00:08.868Z,10.90
2022-08-25T20:05:14.669Z,10.45
2022-08-25T20:10:17.767Z,11.35
2022-08-25T20:15:21.588Z,10.85
2022-08-25T20:20:32.668Z,14.63
2022-08-25T20:25:37.453Z,11.88
2022-08-25T20:30:45.113Z,10.80
2022-08-25T20:35:49.774Z,11.13
2022-08-25T20:40:55.733Z,12.38
2022-08-25T20:46:01.999Z,12.45
2022-08-25T20:51:07.656Z,12.25
2022-08-25T20:56:11.585Z,12.20
2022-08-25T21:01:22.873Z,11.85
2022-08-25T21:06:27.373Z,12.10
2022-08-25T21:11:33.372Z,12.75
2022-08-25T21:16:38.710Z,12.32
2022-08-25T21:21:46.235Z,11.75
2022-08-25T21:26:52.925Z,12.23
2022-08-25T21:31:55.665Z,13.10
2022-08-25T21:37:00.232Z,12.13
2022-08-25T21:42:03.469Z,12.73
2022-08-25T21:47:06.299Z,12.93
2022-08-25T21:52:10.353Z,12.38
2022-08-25T21:57:13.074Z,13.02
2022-08-25T22:02:20.542Z,14.50
2022-08-25T22:07:26.730Z,13.32
2022-08-25T22:12:29.475Z,12.48
2022-08-25T22:17:32.372Z,13.50
2022-08-25T22:22:36.452Z,12.52
2022-08-25T22:27:39.166Z,15.35
2022-08-25T22:32:42.458Z,14.73
2022-08-25T22:37:49.494Z,13.63
2022-08-25T22:42:52.220Z,15.15
2022-08-25T22:47:55.262Z,14.93
2022-08-25T22:52:59.289Z,15.38
2022-08-25T22:58:01.991Z,15.65
2022-08-25T23:03:06.780Z,14.65
2022-08-25T23:08:11.628Z,15.13
2022-08-25T23:13:33.978Z,15.13
2022-08-25T23:18:41.809Z,15.50
2022-08-25T23:23:48.539Z,15.35
2022-08-25T23:28:51.926Z,15.85
2022-08-25T23:33:54.668Z,16.02
2022-08-25T23:38:58.693Z,15.88
2022-08-25T23:44:01.388Z,16.85
2022-08-25T23:49:06.204Z,17.17
2022-08-25T23:54:13.357Z,16.15
2022-08-25T23:59:16.624Z,16.23
